Time;durP1;ratioP1;P1;durP2;ratioP2;P2;SDS_P1;SDS_P2;PMS_P1;PMS_P2;Temp;Humidity;BMP_temperature;BMP_pressure;BME280_temperature;BME280_humidity;BME280_pressure;Samples;Min_cycle;Max_cycle;Signal;HPM_P1;HPM_P2
2021/05/17 00:01:56;;;;;;;8.93;4.60;;;8.40;91.10;;;;;;5054835;28;20309;-82
2021/05/17 00:04:33;;;;;;;8.10;4.20;;;8.40;91.20;;;;;;5054960;28;20200;-82
2021/05/17 00:07:04;;;;;;;7.57;5.07;;;8.40;91.20;;;;;;5036935;28;20254;-83
2021/05/17 00:09:30;;;;;;;4.93;4.07;;;8.30;91.10;;;;;;5036972;28;20175;-82
2021/05/17 00:11:56;;;;;;;6.33;4.87;;;8.30;91.20;;;;;;5054551;28;20180;-82
2021/05/17 00:14:24;;;;;;;8.20;4.80;;;8.30;91.20;;;;;;5036754;28;20198;-82
2021/05/17 00:16:51;;;;;;;7.67;4.73;;;8.30;91.10;;;;;;5054870;28;20659;-82
2021/05/17 00:19:16;;;;;;;9.47;4.53;;;8.30;91.10;;;;;;5054484;28;20624;-82
2021/05/17 00:21:42;;;;;;;6.33;4.30;;;8.20;91.10;;;;;;5036529;28;20184;-82
2021/05/17 00:24:10;;;;;;;4.90;4.20;;;8.20;91.10;;;;;;5054261;28;20192;-82
2021/05/17 00:26:37;;;;;;;4.00;3.60;;;8.20;91.10;;;;;;5036478;28;20181;-83
2021/05/17 00:29:03;;;;;;;11.33;3.77;;;8.20;91.00;;;;;;5054481;28;20177;-82
2021/05/17 00:31:29;;;;;;;5.40;3.77;;;8.30;91.00;;;;;;5053386;28;20318;-82
2021/05/17 00:33:55;;;;;;;4.93;3.67;;;8.30;91.00;;;;;;5054199;28;20196;-83
2021/05/17 00:36:21;;;;;;;4.93;4.10;;;8.30;90.90;;;;;;5036265;28;20188;-83
2021/05/17 00:38:47;;;;;;;7.70;3.90;;;8.20;90.80;;;;;;5036351;28;20180;-82
2021/05/17 00:41:13;;;;;;;6.70;4.43;;;8.20;90.70;;;;;;5036284;28;20241;-83
2021/05/17 00:43:39;;;;;;;5.13;4.10;;;8.20;90.70;;;;;;5053963;28;20699;-82
2021/05/17 00:46:06;;;;;;;5.87;4.73;;;8.30;90.60;;;;;;5053995;28;20168;-82
2021/05/17 00:48:34;;;;;;;9.73;5.83;;;8.20;90.60;;;;;;5054098;28;20168;-82
2021/05/17 00:51:01;;;;;;;6.10;5.40;;;8.20;90.70;;;;;;5036076;28;20187;-82
2021/05/17 00:53:27;;;;;;;6.90;5.03;;;8.30;90.70;;;;;;5053808;28;20192;-82
2021/05/17 00:55:53;;;;;;;6.30;5.13;;;8.30;90.70;;;;;;5053866;28;20183;-82
2021/05/17 00:58:18;;;;;;;7.27;4.87;;;8.30;90.60;;;;;;5054032;28;20177;-82
2021/05/17 01:00:44;;;;;;;7.47;4.57;;;8.30;90.40;;;;;;5053699;28;20230;-82
2021/05/17 01:03:10;;;;;;;6.17;4.57;;;8.30;90.10;;;;;;5053484;28;20196;-82
2021/05/17 01:05:39;;;;;;;4.90;4.20;;;8.30;90.00;;;;;;5036137;28;20178;-82
2021/05/17 01:08:12;;;;;;;4.90;4.27;;;8.20;90.00;;;;;;5053723;28;20204;-82
2021/05/17 01:10:43;;;;;;;4.33;3.93;;;8.20;89.90;;;;;;5053955;28;20618;-82
2021/05/17 01:13:10;;;;;;;4.50;4.10;;;8.10;89.90;;;;;;5053458;28;20277;-81
2021/05/17 01:15:37;;;;;;;4.90;4.30;;;8.00;90.00;;;;;;5053500;28;20168;-81
2021/05/17 01:18:04;;;;;;;4.27;3.87;;;8.00;90.00;;;;;;5053446;28;20172;-81
2021/05/17 01:20:33;;;;;;;4.73;3.20;;;7.90;89.90;;;;;;5053388;28;20172;-82
2021/05/17 01:25:50;;;;;;;4.30;3.43;;;7.80;89.90;;;;;;5053491;28;20298;-81
2021/05/17 01:28:22;;;;;;;6.03;3.40;;;7.70;89.90;;;;;;5035506;28;20172;-81
2021/05/17 01:30:51;;;;;;;4.63;3.13;;;7.50;90.10;;;;;;5053562;28;20160;-81
2021/05/17 01:33:17;;;;;;;2.73;2.53;;;7.30;90.40;;;;;;5053288;28;20188;-81
2021/05/17 01:35:48;;;;;;;3.80;2.80;;;7.30;90.60;;;;;;5053318;28;20168;-82
2021/05/17 01:38:15;;;;;;;2.67;2.47;;;7.30;90.70;;;;;;5035432;28;20182;-82
2021/05/17 01:40:44;;;;;;;3.80;3.13;;;7.30;90.90;;;;;;5035429;28;20662;-83
2021/05/17 01:43:15;;;;;;;3.37;3.07;;;7.40;91.00;;;;;;5052792;28;20188;-83
2021/05/17 01:45:43;;;;;;;6.10;3.07;;;7.40;91.10;;;;;;5053089;28;20173;-84
2021/05/17 01:48:09;;;;;;;5.73;3.17;;;7.50;91.10;;;;;;5035191;28;20203;-84
2021/05/17 01:50:37;;;;;;;3.57;2.70;;;7.50;91.00;;;;;;5053012;28;20530;-84
2021/05/17 01:53:04;;;;;;;6.57;3.20;;;7.60;90.90;;;;;;5052992;28;20270;-84
2021/05/17 01:55:30;;;;;;;6.90;3.10;;;7.50;90.80;;;;;;5035288;28;20172;-84
2021/05/17 01:58:19;;;;;;;3.40;3.10;;;7.50;90.80;;;;;;5035217;28;20546;-84
2021/05/17 02:00:45;;;;;;;3.43;2.80;;;7.60;90.80;;;;;;5035174;28;20263;-84
2021/05/17 02:03:11;;;;;;;4.67;3.27;;;7.60;90.80;;;;;;5052826;28;20714;-83
2021/05/17 02:05:37;;;;;;;3.83;3.50;;;7.60;90.80;;;;;;5053148;28;20168;-84
2021/05/17 02:08:04;;;;;;;4.00;3.10;;;7.70;90.80;;;;;;5053225;28;20247;-84
2021/05/17 02:10:31;;;;;;;4.80;4.20;;;7.70;90.70;;;;;;5052914;28;20196;-84
2021/05/17 02:12:58;;;;;;;4.70;4.07;;;7.70;90.80;;;;;;5053012;28;20310;-84
2021/05/17 02:15:25;;;;;;;7.03;4.07;;;7.70;90.80;;;;;;5035046;28;20657;-82
2021/05/17 02:18:06;;;;;;;6.13;3.90;;;7.70;90.80;;;;;;5052917;28;20590;-82
2021/05/17 02:20:34;;;;;;;5.17;4.67;;;7.70;90.90;;;;;;5052744;28;20221;-82
2021/05/17 02:23:01;;;;;;;4.30;3.90;;;7.70;90.80;;;;;;5052687;28;20188;-82
2021/05/17 02:25:28;;;;;;;3.67;3.10;;;7.70;90.70;;;;;;5053005;28;20262;-82
2021/05/17 02:27:55;;;;;;;4.60;3.83;;;7.70;90.70;;;;;;5052729;28;20531;-82
2021/05/17 02:30:21;;;;;;;4.93;4.10;;;7.70;90.60;;;;;;5052835;28;20237;-82
2021/05/17 02:32:47;;;;;;;5.70;4.23;;;7.70;90.60;;;;;;5034713;28;20192;-82
2021/05/17 02:35:13;;;;;;;5.87;4.73;;;7.70;90.50;;;;;;5052743;28;20172;-82
2021/05/17 02:37:39;;;;;;;7.73;5.87;;;7.70;90.40;;;;;;5034834;28;20172;-82
2021/05/17 02:40:06;;;;;;;9.53;6.63;;;7.70;90.70;;;;;;5052644;28;20226;-82
2021/05/17 02:42:34;;;;;;;8.33;6.73;;;7.70;91.10;;;;;;5052476;28;20200;-82
2021/05/17 02:45:04;;;;;;;11.67;6.60;;;7.70;91.30;;;;;;5034714;28;20200;-82
2021/05/17 02:47:34;;;;;;;9.97;6.07;;;7.80;91.40;;;;;;5034781;28;20176;-82
2021/05/17 02:50:00;;;;;;;5.70;5.10;;;7.80;91.40;;;;;;5052643;28;20179;-82
2021/05/17 02:52:33;;;;;;;4.70;4.20;;;7.80;91.50;;;;;;5052956;28;20238;-82
2021/05/17 02:55:06;;;;;;;9.53;4.20;;;7.80;91.50;;;;;;5054985;28;20160;-82
2021/05/17 02:57:44;;;;;;;7.60;4.00;;;7.70;91.50;;;;;;5038223;28;20597;-82
2021/05/17 03:00:14;;;;;;;6.93;4.10;;;7.70;91.50;;;;;;5056051;28;20572;-82
2021/05/17 03:02:55;;;;;;;8.80;3.93;;;7.70;91.60;;;;;;5038239;28;20679;-82
2021/05/17 03:05:22;;;;;;;5.20;3.83;;;7.70;91.60;;;;;;5038022;28;20192;-82
2021/05/17 03:08:09;;;;;;;7.90;3.73;;;7.70;91.60;;;;;;5038002;28;20172;-82
2021/05/17 03:10:46;;;;;;;10.80;4.10;;;7.70;91.50;;;;;;5056191;28;20160;-82
2021/05/17 03:13:18;;;;;;;3.93;3.60;;;7.60;91.50;;;;;;5055828;28;20215;-82
2021/05/17 03:15:46;;;;;;;3.80;3.30;;;7.60;91.40;;;;;;5055993;28;20172;-82
2021/05/17 03:18:12;;;;;;;9.37;3.80;;;7.60;91.40;;;;;;5037746;28;20183;-82
2021/05/17 03:20:39;;;;;;;6.17;4.33;;;7.60;91.20;;;;;;5055644;28;20647;-82
2021/05/17 03:23:12;;;;;;;10.63;7.27;;;7.50;91.20;;;;;;5055488;28;20225;-81
2021/05/17 03:25:42;;;;;;;12.43;8.87;;;7.50;91.40;;;;;;5037728;28;20624;-82
2021/05/17 03:28:08;;;;;;;11.17;9.83;;;7.60;91.80;;;;;;5037674;28;20176;-82
2021/05/17 03:30:34;;;;;;;10.70;9.30;;;7.70;92.30;;;;;;5037616;28;20172;-84
2021/05/17 03:32:59;;;;;;;10.90;8.73;;;7.60;92.40;;;;;;5037507;28;20198;-84
2021/05/17 03:35:25;;;;;;;8.77;6.67;;;7.70;92.40;;;;;;5037498;28;20220;-84
2021/05/17 03:37:50;;;;;;;9.17;7.07;;;7.60;92.20;;;;;;5037480;28;20176;-84
2021/05/17 03:40:17;;;;;;;10.23;7.43;;;7.60;92.20;;;;;;5055494;28;20644;-84
2021/05/17 03:42:43;;;;;;;9.63;7.43;;;7.60;92.20;;;;;;5055318;28;20188;-83
2021/05/17 03:45:12;;;;;;;11.53;8.00;;;7.70;92.10;;;;;;5037320;28;20195;-84
2021/05/17 03:47:37;;;;;;;10.37;7.17;;;7.60;92.10;;;;;;5037177;28;20172;-84
2021/05/17 03:50:06;;;;;;;8.27;7.47;;;7.60;92.00;;;;;;5055056;28;20183;-85
2021/05/17 03:52:32;;;;;;;9.00;7.03;;;7.50;92.00;;;;;;5054962;28;20196;-84
2021/05/17 03:54:57;;;;;;;6.63;5.93;;;7.50;92.00;;;;;;5054960;28;20183;-84
2021/05/17 03:57:23;;;;;;;7.50;6.23;;;7.50;91.90;;;;;;5055038;28;20199;-84
2021/05/17 03:59:49;;;;;;;13.20;7.30;;;7.60;91.90;;;;;;5054951;28;20172;-84
2021/05/17 04:02:17;;;;;;;17.43;7.87;;;7.70;91.90;;;;;;5037018;28;20192;-84
2021/05/17 04:15:20;;;;;;;9.73;7.90;;;7.80;92.70;;;;;;5055100;28;20155;-83
2021/05/17 04:17:46;;;;;;;14.17;8.93;;;7.90;92.90;;;;;;5036747;28;20213;-83
2021/05/17 04:20:12;;;;;;;12.83;8.57;;;7.90;93.10;;;;;;5055069;28;20179;-83
2021/05/17 04:22:38;;;;;;;12.03;8.73;;;8.00;93.30;;;;;;5036669;28;20623;-83
2021/05/17 04:25:04;;;;;;;12.03;9.83;;;8.20;93.40;;;;;;5036520;28;20200;-84
2021/05/17 04:27:30;;;;;;;17.90;10.40;;;8.30;93.50;;;;;;5036651;28;20557;-83
2021/05/17 04:29:56;;;;;;;19.53;12.13;;;8.50;93.60;;;;;;5054395;28;20168;-83
2021/05/17 04:32:21;;;;;;;17.30;12.37;;;8.70;93.60;;;;;;5054496;28;20262;-83
2021/05/17 04:34:47;;;;;;;19.10;11.87;;;8.80;93.70;;;;;;5036383;28;20179;-83
2021/05/17 04:37:13;;;;;;;28.77;13.00;;;8.90;93.70;;;;;;5036413;28;20179;-83
2021/05/17 04:39:38;;;;;;;18.03;12.50;;;9.00;93.70;;;;;;5054186;28;20208;-83
2021/05/17 04:42:04;;;;;;;23.00;12.63;;;9.10;93.60;;;;;;5054431;28;20183;-84
2021/05/17 04:44:30;;;;;;;17.23;13.63;;;9.10;93.60;;;;;;5036191;28;20210;-84
2021/05/17 04:46:55;;;;;;;15.63;12.30;;;9.20;93.60;;;;;;5054368;28;20172;-83
2021/05/17 04:49:21;;;;;;;18.60;13.17;;;9.20;93.60;;;;;;5053952;28;20586;-84
2021/05/17 04:51:46;;;;;;;18.00;11.87;;;9.20;93.60;;;;;;5053982;28;20169;-84
2021/05/17 04:54:12;;;;;;;17.63;12.00;;;9.20;93.50;;;;;;5053817;28;20248;-84
2021/05/17 04:56:38;;;;;;;16.40;11.67;;;9.30;93.50;;;;;;5053811;28;20655;-84
2021/05/17 04:59:04;;;;;;;15.20;12.20;;;9.30;93.50;;;;;;5053794;28;20199;-84
2021/05/17 05:01:29;;;;;;;14.43;11.70;;;9.20;93.40;;;;;;5035864;28;20175;-84
2021/05/17 05:03:55;;;;;;;16.67;11.77;;;9.20;93.40;;;;;;5053658;28;20187;-84
2021/05/17 05:06:21;;;;;;;13.50;10.77;;;9.20;93.30;;;;;;5035803;28;20673;-84
2021/05/17 05:08:46;;;;;;;17.87;9.90;;;9.20;93.20;;;;;;5035853;28;20182;-82
2021/05/17 05:11:12;;;;;;;13.23;10.10;;;9.20;93.20;;;;;;5053615;28;20631;-82
2021/05/17 05:13:37;;;;;;;20.87;12.67;;;9.20;93.10;;;;;;5035544;28;20258;-81
2021/05/17 05:16:03;;;;;;;19.07;11.50;;;9.20;93.10;;;;;;5053428;28;20539;-81
2021/05/17 05:18:29;;;;;;;18.07;12.10;;;9.30;93.20;;;;;;5053481;28;20168;-82
2021/05/17 05:20:55;;;;;;;13.83;11.93;;;9.40;93.20;;;;;;5053506;28;20640;-81
2021/05/17 05:23:21;;;;;;;15.00;11.57;;;9.40;93.20;;;;;;5053304;28;20732;-82
2021/05/17 05:28:25;;;;;;;17.43;11.53;;;9.50;93.00;;;;;;5053703;28;20164;-82
2021/05/17 05:33:22;;;;;;;15.23;11.17;;;9.70;93.10;;;;;;5053526;28;20196;-82
2021/05/17 05:35:48;;;;;;;12.80;10.53;;;9.80;93.10;;;;;;5053277;28;20177;-82
2021/05/17 05:38:14;;;;;;;24.90;10.87;;;9.80;93.10;;;;;;5053603;28;20226;-82
2021/05/17 05:40:40;;;;;;;11.50;9.93;;;9.80;93.10;;;;;;5053452;28;20210;-82
2021/05/17 05:43:06;;;;;;;13.37;10.77;;;9.70;93.00;;;;;;5053157;28;20192;-82
2021/05/17 05:45:33;;;;;;;24.00;11.47;;;9.80;92.90;;;;;;5053092;28;20280;-82
2021/05/17 05:47:59;;;;;;;13.50;11.20;;;9.80;92.90;;;;;;5035380;28;20210;-82
2021/05/17 05:50:25;;;;;;;14.93;12.00;;;9.90;93.00;;;;;;5053054;28;20175;-82
2021/05/17 05:52:51;;;;;;;15.87;11.77;;;10.10;93.00;;;;;;5053280;28;20215;-82
2021/05/17 05:55:17;;;;;;;14.40;11.27;;;10.10;92.80;;;;;;5035237;28;20180;-82
2021/05/17 05:57:44;;;;;;;14.77;10.90;;;10.10;92.80;;;;;;5035180;28;20229;-82
2021/05/17 06:00:14;;;;;;;19.83;12.13;;;10.00;92.40;;;;;;5035204;28;20643;-82
2021/05/17 06:02:40;;;;;;;14.57;11.80;;;9.90;92.10;;;;;;5035069;28;20196;-83
2021/05/17 06:05:07;;;;;;;16.57;12.00;;;10.00;92.30;;;;;;5052884;28;20204;-84
2021/05/17 06:07:33;;;;;;;17.77;12.17;;;10.00;92.30;;;;;;5053253;28;20195;-82
2021/05/17 06:09:59;;;;;;;16.13;12.50;;;10.10;92.40;;;;;;5053213;28;20168;-84
2021/05/17 06:12:25;;;;;;;16.50;12.73;;;10.20;92.50;;;;;;5034840;28;20208;-83
2021/05/17 06:14:58;;;;;;;19.30;12.83;;;10.20;92.60;;;;;;5053199;28;20184;-84
2021/05/17 06:17:25;;;;;;;19.97;13.87;;;10.20;92.30;;;;;;5053421;28;20490;-83
2021/05/17 06:19:51;;;;;;;19.10;12.83;;;10.40;92.50;;;;;;5035037;28;20186;-83
2021/05/17 06:22:17;;;;;;;19.53;13.90;;;10.40;92.20;;;;;;5034911;28;20204;-82
2021/05/17 06:24:43;;;;;;;19.27;14.10;;;10.60;92.30;;;;;;5052768;28;20748;-82
2021/05/17 06:27:09;;;;;;;14.97;11.87;;;10.70;92.20;;;;;;5052754;28;20183;-82
2021/05/17 06:29:35;;;;;;;15.70;10.73;;;10.80;91.90;;;;;;5038246;28;20172;-82
2021/05/17 06:32:01;;;;;;;15.27;11.50;;;10.90;90.90;;;;;;5039312;28;20263;-82
2021/05/17 06:34:27;;;;;;;16.47;11.80;;;11.00;90.80;;;;;;5056594;28;20208;-81
2021/05/17 06:36:54;;;;;;;17.03;10.23;;;11.20;90.90;;;;;;5038601;28;20187;-81
2021/05/17 06:39:20;;;;;;;13.93;9.63;;;11.20;89.70;;;;;;5056594;28;20206;-81
2021/05/17 06:41:46;;;;;;;17.43;10.37;;;11.30;89.40;;;;;;5056481;28;20168;-83
2021/05/17 06:44:12;;;;;;;15.23;9.23;;;11.30;88.90;;;;;;5038639;28;20214;-84
2021/05/17 06:46:38;;;;;;;11.30;8.87;;;11.30;89.00;;;;;;5038677;28;20176;-83
2021/05/17 06:49:04;;;;;;;12.23;9.30;;;11.50;88.90;;;;;;5057177;28;20168;-84
2021/05/17 06:51:30;;;;;;;15.10;9.67;;;11.50;87.70;;;;;;5056367;28;20179;-82
2021/05/17 06:53:59;;;;;;;11.83;7.13;;;11.60;88.50;;;;;;5058264;28;20196;-82
2021/05/17 06:56:50;;;;;;;11.07;8.63;;;11.70;88.20;;;;;;5056398;28;20172;-82
2021/05/17 06:59:20;;;;;;;13.40;7.77;;;11.70;87.70;;;;;;5056313;28;20152;-82
2021/05/17 07:01:46;;;;;;;12.93;8.43;;;11.90;87.80;;;;;;5038168;28;20643;-82
2021/05/17 07:04:16;;;;;;;13.17;8.57;;;12.00;87.90;;;;;;5055786;28;20294;-82
2021/05/17 07:06:51;;;;;;;13.70;7.00;;;12.00;87.50;;;;;;5038372;28;20679;-82
2021/05/17 07:12:09;;;;;;;8.77;5.67;;;12.10;85.00;;;;;;5055692;28;20620;-82
2021/05/17 07:14:35;;;;;;;13.23;5.23;;;12.20;85.20;;;;;;5037987;28;20179;-81
2021/05/17 07:17:01;;;;;;;6.90;4.70;;;12.10;84.50;;;;;;5055723;28;20172;-82
2021/05/17 07:19:26;;;;;;;10.20;4.47;;;12.20;83.80;;;;;;5055703;28;20183;-82
2021/05/17 07:24:36;;;;;;;8.17;3.97;;;12.40;83.40;;;;;;5055787;28;20219;-82
2021/05/17 07:27:02;;;;;;;6.63;4.13;;;12.40;82.30;;;;;;5037648;28;20180;-82
2021/05/17 07:29:32;;;;;;;9.73;4.20;;;12.50;83.50;;;;;;5055749;28;20199;-82
2021/05/17 07:31:58;;;;;;;10.83;4.40;;;12.70;82.60;;;;;;5055498;28;20171;-83
2021/05/17 07:34:23;;;;;;;8.97;3.90;;;12.70;79.80;;;;;;5055506;28;20168;-82
2021/05/17 07:36:49;;;;;;;11.00;4.97;;;12.70;81.30;;;;;;5037509;28;20172;-82
2021/05/17 07:39:15;;;;;;;9.37;5.03;;;12.70;81.30;;;;;;5037265;28;20703;-82
2021/05/17 07:41:41;;;;;;;8.33;5.20;;;12.80;82.30;;;;;;5037394;28;20184;-82
2021/05/17 07:44:07;;;;;;;9.03;5.67;;;12.80;82.10;;;;;;5037235;28;20218;-81
2021/05/17 07:46:33;;;;;;;11.30;5.53;;;12.90;82.30;;;;;;5055371;28;20168;-82
2021/05/17 07:51:35;;;;;;;11.13;5.13;;;12.90;80.50;;;;;;5055457;28;20152;-82
2021/05/17 07:54:02;;;;;;;12.00;5.50;;;13.00;81.50;;;;;;5055053;28;20184;-81
2021/05/17 07:56:27;;;;;;;9.83;6.07;;;12.90;79.30;;;;;;5055081;28;20203;-81
2021/05/17 07:58:53;;;;;;;10.23;5.13;;;13.00;81.20;;;;;;5037165;28;20210;-82
2021/05/17 08:01:19;;;;;;;12.20;5.50;;;13.20;81.00;;;;;;5054915;28;20173;-82
2021/05/17 08:03:45;;;;;;;7.10;4.83;;;13.10;79.30;;;;;;5055683;28;20196;-81
2021/05/17 08:06:10;;;;;;;8.23;4.60;;;13.10;80.00;;;;;;5037066;28;20203;-81
2021/05/17 08:08:36;;;;;;;13.90;5.13;;;13.30;80.10;;;;;;5055147;28;20175;-81
2021/05/17 08:11:03;;;;;;;7.63;5.00;;;13.30;78.80;;;;;;5055271;28;20709;-82
2021/05/17 08:13:28;;;;;;;11.87;5.50;;;13.70;81.70;;;;;;5036553;28;20306;-82
2021/05/17 08:15:54;;;;;;;7.67;3.53;;;13.90;80.40;;;;;;5055210;28;20203;-81
2021/05/17 08:18:20;;;;;;;9.17;3.80;;;13.90;77.00;;;;;;5054596;28;20175;-82
2021/05/17 08:20:46;;;;;;;13.47;3.93;;;14.10;77.00;;;;;;5036698;28;20196;-82
2021/05/17 08:23:15;;;;;;;5.57;2.70;;;14.20;75.80;;;;;;5054447;28;20227;-82
2021/05/17 08:25:41;;;;;;;7.70;3.30;;;14.40;75.60;;;;;;5036464;28;20287;-82
2021/05/17 08:28:06;;;;;;;8.37;2.70;;;14.40;72.80;;;;;;5054693;28;20200;-82
2021/05/17 08:30:40;;;;;;;8.50;2.93;;;14.10;72.40;;;;;;5054398;28;20179;-82
2021/05/17 08:33:06;;;;;;;8.50;3.53;;;14.00;74.80;;;;;;5054285;28;20207;-82
2021/05/17 08:35:32;;;;;;;6.63;2.77;;;13.80;73.80;;;;;;5054418;28;20214;-82
2021/05/17 08:37:58;;;;;;;9.03;2.57;;;13.80;74.60;;;;;;5054832;28;20179;-82
2021/05/17 08:40:26;;;;;;;3.93;2.00;;;13.70;69.80;;;;;;5054555;28;20632;-82
2021/05/17 08:42:55;;;;;;;9.27;3.27;;;13.80;70.70;;;;;;5036189;28;20203;-81
2021/05/17 08:45:23;;;;;;;5.87;2.67;;;13.80;71.50;;;;;;5053980;28;20283;-81
2021/05/17 08:47:48;;;;;;;6.17;2.70;;;13.80;71.80;;;;;;5054041;28;20247;-82
2021/05/17 08:50:14;;;;;;;5.83;2.70;;;13.70;71.00;;;;;;5054013;28;20647;-82
2021/05/17 08:52:40;;;;;;;6.43;3.33;;;13.60;71.10;;;;;;5035356;28;20565;-81
2021/05/17 08:55:12;;;;;;;6.67;2.80;;;13.50;72.70;;;;;;5036304;28;20310;-82
2021/05/17 08:57:41;;;;;;;8.40;2.30;;;13.50;73.50;;;;;;5054138;28;20159;-82
2021/05/17 09:00:08;;;;;;;6.03;2.13;;;13.50;70.80;;;;;;5054175;28;20178;-81
2021/05/17 09:02:33;;;;;;;3.70;2.10;;;13.50;73.70;;;;;;5035919;28;20208;-82
2021/05/17 09:05:23;;;;;;;7.27;2.90;;;13.50;73.60;;;;;;5053778;28;20200;-81
2021/05/17 09:07:51;;;;;;;7.33;2.67;;;13.50;72.50;;;;;;5036039;28;20171;-82
2021/05/17 09:10:18;;;;;;;6.10;3.03;;;13.70;75.00;;;;;;5053708;28;20199;-82
2021/05/17 09:13:06;;;;;;;7.00;3.17;;;13.80;73.90;;;;;;5053730;28;20207;-81
2021/05/17 09:15:46;;;;;;;4.53;2.67;;;13.90;73.40;;;;;;5036256;28;20180;-82
2021/05/17 09:18:16;;;;;;;9.60;3.40;;;13.90;71.70;;;;;;5053632;28;20628;-81
2021/05/17 09:20:47;;;;;;;6.87;3.33;;;13.90;74.80;;;;;;5053556;28;20229;-81
2021/05/17 09:23:17;;;;;;;6.40;3.23;;;13.90;73.10;;;;;;5053447;28;20196;-82
2021/05/17 09:26:08;;;;;;;10.27;3.57;;;13.80;73.50;;;;;;5053597;28;20726;-83
2021/05/17 09:28:48;;;;;;;7.50;3.57;;;13.80;74.40;;;;;;5053491;28;20160;-83
2021/05/17 09:31:19;;;;;;;7.20;3.17;;;13.90;74.50;;;;;;5053598;28;20258;-82
2021/05/17 09:33:52;;;;;;;7.10;3.37;;;13.90;73.50;;;;;;5053397;28;20216;-82
2021/05/17 09:36:35;;;;;;;4.87;2.63;;;13.90;73.90;;;;;;5035715;28;20160;-82
2021/05/17 09:39:06;;;;;;;5.40;2.70;;;13.80;69.10;;;;;;5035438;28;20171;-82
2021/05/17 09:41:47;;;;;;;8.53;3.00;;;13.80;70.60;;;;;;5053621;28;20157;-82
2021/05/17 09:44:21;;;;;;;9.50;3.10;;;13.90;72.30;;;;;;5053127;28;20226;-82
2021/05/17 09:47:20;;;;;;;5.07;2.70;;;13.90;72.70;;;;;;5053186;28;20161;-83
2021/05/17 09:49:49;;;;;;;4.40;2.50;;;13.90;70.70;;;;;;5053194;28;20153;-82
2021/05/17 09:52:28;;;;;;;5.20;3.13;;;13.80;72.20;;;;;;5053224;28;20275;-82
2021/05/17 09:54:59;;;;;;;6.67;2.73;;;13.80;70.60;;;;;;5053136;28;20161;-82
2021/05/17 09:57:40;;;;;;;5.20;3.03;;;13.70;73.60;;;;;;5035252;28;20258;-82
2021/05/17 10:00:12;;;;;;;7.97;3.37;;;13.70;73.80;;;;;;5053246;28;20259;-83
2021/05/17 10:02:54;;;;;;;8.40;2.83;;;13.40;75.80;;;;;;5053607;28;20196;-84
2021/05/17 10:05:28;;;;;;;5.33;2.60;;;13.10;74.60;;;;;;5057324;28;20531;-83
2021/05/17 10:07:58;;;;;;;8.87;5.40;;;13.10;74.60;;;;;;5057383;28;20563;-84
2021/05/17 10:10:26;;;;;;;17.07;11.77;;;13.10;79.50;;;;;;5039399;28;20168;-84
2021/05/17 10:12:53;;;;;;;18.47;14.20;;;13.10;82.60;;;;;;5056889;28;20234;-84
2021/05/17 10:15:20;;;;;;;18.57;13.20;;;13.00;84.60;;;;;;5057155;28;20183;-84
2021/05/17 10:17:47;;;;;;;18.67;15.37;;;12.90;85.10;;;;;;5056972;28;20180;-83
2021/05/17 10:20:17;;;;;;;21.37;15.90;;;12.60;86.70;;;;;;5056894;28;20555;-83
2021/05/17 10:22:44;;;;;;;17.80;15.33;;;12.60;87.00;;;;;;5057064;28;20211;-84
2021/05/17 10:25:13;;;;;;;20.07;13.67;;;12.70;87.10;;;;;;5056929;28;20203;-82
2021/05/17 10:27:47;;;;;;;18.00;12.70;;;12.80;86.80;;;;;;5057015;28;20180;-83
2021/05/17 10:30:14;;;;;;;10.77;9.40;;;12.90;86.70;;;;;;5056757;28;20570;-82
2021/05/17 10:32:46;;;;;;;12.80;8.73;;;13.10;85.00;;;;;;5056844;28;20191;-82
2021/05/17 10:35:17;;;;;;;13.53;9.30;;;13.30;84.80;;;;;;5056765;28;20172;-82
2021/05/17 10:37:45;;;;;;;12.23;9.70;;;13.50;84.70;;;;;;5056818;28;20215;-82
2021/05/17 10:40:35;;;;;;;10.97;9.63;;;13.70;84.70;;;;;;5056848;28;20172;-82
2021/05/17 10:43:20;;;;;;;12.63;10.13;;;13.80;84.70;;;;;;5056364;28;20717;-82
2021/05/17 10:48:34;;;;;;;13.40;8.40;;;14.40;82.50;;;;;;5056357;28;20152;-82
2021/05/17 10:51:09;;;;;;;10.03;7.77;;;14.80;80.00;;;;;;5057146;28;20608;-83
2021/05/17 10:53:46;;;;;;;9.30;7.27;;;15.00;78.50;;;;;;5056921;28;20199;-83
2021/05/17 10:56:15;;;;;;;9.90;8.47;;;15.20;77.20;;;;;;5056838;28;20294;-82
2021/05/17 11:01:55;;;;;;;9.60;7.67;;;15.50;77.50;;;;;;5056192;28;20168;-83
2021/05/17 11:04:25;;;;;;;13.17;8.83;;;15.80;76.20;;;;;;5038257;28;20196;-83
2021/05/17 11:07:09;;;;;;;11.13;8.10;;;16.00;77.20;;;;;;5055990;28;20165;-82
2021/05/17 11:09:52;;;;;;;11.85;7.72;;;16.20;73.60;;;;;;5055841;28;20172;-82
2021/05/17 11:12:41;;;;;;;11.07;7.80;;;16.10;73.60;;;;;;5055800;28;20577;-83
2021/05/17 11:15:09;;;;;;;9.48;7.55;;;16.40;74.80;;;;;;5016111;28;20180;-82
2021/05/17 11:17:56;;;;;;;9.15;6.70;;;15.90;71.90;;;;;;5055863;28;20516;-82
2021/05/17 11:20:40;;;;;;;10.45;6.93;;;15.40;70.30;;;;;;5056471;28;20586;-82
2021/05/17 11:23:26;;;;;;;9.73;6.43;;;15.60;72.60;;;;;;5037766;28;20287;-82
2021/05/17 11:28:38;;;;;;;11.47;7.23;;;15.40;72.50;;;;;;5055790;28;20177;-82
2021/05/17 11:31:28;;;;;;;8.13;7.25;;;15.00;71.70;;;;;;5055485;28;20226;-82
2021/05/17 11:34:02;;;;;;;11.90;7.97;;;15.10;73.10;;;;;;5055555;28;20237;-82
2021/05/17 11:36:29;;;;;;;8.00;6.87;;;15.10;71.20;;;;;;5055415;28;20166;-82
2021/05/17 11:39:19;;;;;;;6.43;5.40;;;15.10;70.10;;;;;;5055328;28;20202;-82
2021/05/17 11:41:53;;;;;;;7.77;6.10;;;15.00;67.20;;;;;;5055418;28;20284;-82
2021/05/17 11:44:44;;;;;;;8.13;5.67;;;15.00;69.90;;;;;;5055646;28;20274;-82
2021/05/17 11:47:12;;;;;;;10.43;5.83;;;14.80;69.90;;;;;;5055201;28;20518;-82
2021/05/17 11:49:44;;;;;;;8.13;6.60;;;15.00;71.60;;;;;;5055195;28;20237;-82
2021/05/17 11:52:12;;;;;;;7.90;5.73;;;15.00;72.10;;;;;;5055050;28;20169;-82
2021/05/17 11:54:45;;;;;;;11.60;6.07;;;15.20;71.90;;;;;;5055380;28;20183;-82
2021/05/17 11:57:11;;;;;;;6.90;3.87;;;15.40;72.40;;;;;;5055590;28;20160;-82
2021/05/17 11:59:37;;;;;;;4.37;3.03;;;15.30;69.00;;;;;;5055001;28;20670;-82
2021/05/17 12:02:08;;;;;;;5.23;2.60;;;15.20;68.60;;;;;;5054933;28;20255;-82
2021/05/17 12:04:35;;;;;;;5.47;2.87;;;15.10;68.70;;;;;;5055154;28;20191;-81
2021/05/17 12:07:12;;;;;;;8.53;6.73;;;14.90;69.40;;;;;;5054895;28;20285;-82
2021/05/17 12:09:54;;;;;;;9.03;8.17;;;15.00;75.50;;;;;;5055104;28;20573;-82
2021/05/17 12:12:28;;;;;;;11.03;8.20;;;15.00;76.50;;;;;;5036736;28;20236;-82
2021/05/17 12:15:05;;;;;;;11.50;8.00;;;15.10;75.10;;;;;;5054748;28;20175;-82
2021/05/17 12:17:32;;;;;;;12.47;6.77;;;15.00;74.30;;;;;;5036832;28;20178;-82
2021/05/17 12:20:05;;;;;;;8.70;7.83;;;15.00;75.50;;;;;;5036730;28;20237;-82
2021/05/17 12:22:40;;;;;;;10.70;7.97;;;15.00;74.80;;;;;;5054571;28;20192;-82
2021/05/17 12:25:11;;;;;;;11.00;7.37;;;14.90;75.70;;;;;;5054467;28;20614;-82
2021/05/17 12:27:37;;;;;;;8.33;6.93;;;15.10;76.60;;;;;;5053632;28;20272;-82
2021/05/17 12:30:15;;;;;;;9.10;6.80;;;15.10;75.00;;;;;;5054363;28;20198;-82
2021/05/17 12:32:44;;;;;;;10.47;6.60;;;15.20;74.60;;;;;;5036500;28;20204;-82
2021/05/17 12:35:24;;;;;;;10.87;6.07;;;15.30;73.80;;;;;;5054345;28;20544;-82
2021/05/17 12:37:55;;;;;;;9.07;5.40;;;15.40;72.20;;;;;;5054309;28;20230;-83
2021/05/17 12:40:25;;;;;;;5.67;4.90;;;15.30;71.90;;;;;;5055160;28;20168;-82
2021/05/17 12:43:00;;;;;;;6.00;4.75;;;15.20;73.10;;;;;;5055757;28;20283;-82
2021/05/17 12:45:26;;;;;;;6.50;4.03;;;15.30;72.70;;;;;;5054969;28;20203;-82
2021/05/17 12:47:52;;;;;;;7.85;4.45;;;15.30;72.00;;;;;;5054874;28;20164;-82
2021/05/17 12:50:17;;;;;;;6.40;4.30;;;15.40;72.10;;;;;;5054794;28;20164;-82
2021/05/17 12:52:44;;;;;;;6.25;4.10;;;15.40;71.40;;;;;;5055164;28;20241;-82
2021/05/17 12:55:21;;;;;;;8.23;4.18;;;15.20;72.70;;;;;;5055195;28;20177;-82
2021/05/17 12:57:53;;;;;;;4.17;3.53;;;15.20;73.20;;;;;;5054984;28;20152;-83
2021/05/17 13:00:41;;;;;;;3.85;3.08;;;15.40;71.00;;;;;;5054792;28;20248;-82
2021/05/17 13:03:08;;;;;;;4.38;3.35;;;15.80;71.50;;;;;;5055308;28;20192;-82
2021/05/17 13:05:53;;;;;;;10.57;3.45;;;16.10;70.30;;;;;;5037367;28;20211;-82
2021/05/17 13:08:20;;;;;;;5.78;3.22;;;16.20;69.50;;;;;;5036486;28;20229;-82
2021/05/17 13:11:05;;;;;;;6.22;3.15;;;16.00;67.80;;;;;;5054601;28;20179;-82
2021/05/17 13:13:44;;;;;;;5.07;3.25;;;16.00;68.70;;;;;;5054187;28;20199;-82
2021/05/17 13:16:17;;;;;;;5.32;2.85;;;15.90;69.50;;;;;;5054238;28;20163;-82
2021/05/17 13:21:52;;;;;;;3.05;2.58;;;15.80;70.60;;;;;;5054061;28;20156;-83
2021/05/17 13:32:21;;;;;;;6.95;3.50;;;15.10;72.00;;;;;;5054813;28;20198;-83
2021/05/17 13:34:46;;;;;;;10.52;3.28;;;15.20;70.60;;;;;;5035909;28;20198;-83
2021/05/17 13:37:12;;;;;;;5.78;4.10;;;15.20;70.60;;;;;;5053614;28;20179;-83
2021/05/17 13:39:37;;;;;;;6.93;4.47;;;15.20;73.10;;;;;;5053356;28;20195;-83
2021/05/17 13:42:03;;;;;;;9.73;4.40;;;15.20;72.90;;;;;;5035938;28;20262;-83
2021/05/17 13:44:29;;;;;;;9.07;4.87;;;15.10;74.10;;;;;;5035979;28;20204;-83